Kuznetsk, Russia
Current Conditions -  °F | °C
As of 2:00 AM on Sunday 23 Nov 2014 (Local Time) from UWLW Reporting Station
Haze Haze  
Wind Chill: 15°   Ceiling: 10000
Heat Index: 21°   Visibility: 3mi
Dew Point: 19°   Wind: 4mph
Humidity: 93%   Direction: 290°WNW
Pressure: 30.18"   Gusts: NA
Location:  53.12°N, 46.6°E
Report Text: UWLW 222300Z 29002MPS 5000 BR BKN100 M06/M07 Q1022 20CLRD60NOSIG RMK QFE761
Loading
Personal Weather Stations






























Interactive Weather Map New forecast layout! Learn more

10-Day Weather Forecast

Advertisements
Track Severe Weather on mobile